createdAt,value
2018-11-07T00:00:18.290Z,96068.19
2018-11-07T00:02:47.493Z,96074.72
2018-11-07T00:05:17.917Z,96064.91
2018-11-07T00:07:47.126Z,96062.86
2018-11-07T00:10:16.418Z,96065.27
2018-11-07T00:12:45.547Z,96067.03
2018-11-07T00:15:15.630Z,96075.66
2018-11-07T00:17:44.754Z,96078.17
2018-11-07T00:20:14.032Z,96079.38
2018-11-07T00:22:43.166Z,96081.72
2018-11-07T00:25:12.835Z,96081.31
2018-11-07T00:27:42.329Z,96082.34
2018-11-07T00:30:12.000Z,96077.02
2018-11-07T00:32:41.192Z,96078.11
2018-11-07T00:35:11.407Z,96082.54
2018-11-07T00:37:41.427Z,96080.00
2018-11-07T00:40:10.576Z,96081.81
2018-11-07T00:42:39.711Z,96077.80
2018-11-07T00:45:11.145Z,96083.73
2018-11-07T00:47:40.310Z,96085.11
2018-11-07T00:50:13.985Z,96085.27
2018-11-07T00:52:43.627Z,96093.17
2018-11-07T00:55:13.445Z,96084.27
2018-11-07T00:57:42.825Z,96087.83
2018-11-07T01:00:14.769Z,96085.42
2018-11-07T01:02:43.943Z,96081.41
2018-11-07T01:05:13.930Z,96084.61
2018-11-07T01:07:44.201Z,96083.80
2018-11-07T01:10:13.407Z,96088.27
2018-11-07T01:12:43.059Z,96076.14
2018-11-07T01:15:12.978Z,96080.25
2018-11-07T01:17:42.117Z,96078.42
2018-11-07T01:20:25.158Z,96078.78
2018-11-07T01:22:54.294Z,96077.17
2018-11-07T01:25:23.449Z,96078.64
2018-11-07T01:27:52.676Z,96067.11
2018-11-07T01:30:21.839Z,96076.23
2018-11-07T01:32:51.023Z,96074.98
2018-11-07T01:35:20.176Z,96070.69
2018-11-07T01:37:49.318Z,96069.73
2018-11-07T01:40:18.486Z,96067.96
2018-11-07T01:42:47.634Z,96067.52
2018-11-07T01:45:17.018Z,96064.33
2018-11-07T01:47:46.182Z,96053.60
2018-11-07T01:50:15.426Z,96054.23
2018-11-07T01:52:44.653Z,96052.39
2018-11-07T01:55:13.818Z,96053.86
2018-11-07T01:57:42.954Z,96054.45
2018-11-07T02:00:12.914Z,96058.09
2018-11-07T02:02:43.347Z,96054.89
2018-11-07T02:05:12.897Z,96041.73
2018-11-07T02:07:42.593Z,96038.88
2018-11-07T02:10:11.862Z,96039.98
2018-11-07T02:12:41.602Z,96036.88
2018-11-07T02:15:11.794Z,96046.72
2018-11-07T02:17:41.106Z,96038.50
2018-11-07T02:20:11.622Z,96040.79
2018-11-07T02:22:42.530Z,96044.83
2018-11-07T02:25:11.699Z,96052.79
2018-11-07T02:27:41.298Z,96050.20
2018-11-07T02:30:13.282Z,96058.55
2018-11-07T02:32:42.443Z,96054.13
2018-11-07T02:35:17.534Z,96064.63
2018-11-07T02:37:46.683Z,96065.17
2018-11-07T02:40:15.834Z,96061.57
2018-11-07T02:42:44.971Z,96058.95
2018-11-07T02:45:14.131Z,96055.58
2018-11-07T02:47:43.288Z,96050.84
2018-11-07T02:50:12.698Z,96043.91
2018-11-07T02:52:41.840Z,96043.28
2018-11-07T02:55:10.983Z,96050.02
2018-11-07T02:57:40.122Z,96052.06
2018-11-07T03:00:11.691Z,96058.59
2018-11-07T03:02:40.853Z,96060.84
2018-11-07T03:05:10.348Z,96059.22
2018-11-07T03:07:40.362Z,96059.22
2018-11-07T03:10:12.014Z,96055.04
2018-11-07T03:12:41.518Z,96043.20
2018-11-07T03:15:11.135Z,96046.73
2018-11-07T03:17:40.278Z,96055.94
2018-11-07T03:20:11.362Z,96049.29
2018-11-07T03:22:40.583Z,96051.31
2018-11-07T03:25:09.819Z,96051.04
2018-11-07T03:27:39.063Z,96047.16
2018-11-07T03:30:09.352Z,96043.58
2018-11-07T03:32:38.492Z,96053.88
2018-11-07T03:35:11.915Z,96048.69
2018-11-07T03:37:41.055Z,96047.81
2018-11-07T03:40:10.223Z,96049.20
2018-11-07T03:42:39.359Z,96055.27
2018-11-07T03:45:08.807Z,96054.84
2018-11-07T03:47:37.967Z,96054.84
2018-11-07T03:50:07.138Z,96051.43
2018-11-07T03:52:36.286Z,96056.55
2018-11-07T03:55:05.779Z,96051.84
2018-11-07T03:57:34.922Z,96056.26
2018-11-07T04:00:05.706Z,96057.84
2018-11-07T04:02:34.835Z,96061.88
2018-11-07T04:05:04.004Z,96057.99
2018-11-07T04:07:33.135Z,96061.02
2018-11-07T04:10:02.283Z,96052.75
2018-11-07T04:12:31.427Z,96047.88
2018-11-07T04:15:01.288Z,96043.80
2018-11-07T04:17:30.424Z,96046.03
2018-11-07T04:20:00.810Z,96044.43
2018-11-07T04:22:30.998Z,96043.13
2018-11-07T04:25:01.031Z,96041.38
2018-11-07T04:27:30.971Z,96034.95
2018-11-07T04:30:01.091Z,96040.95
2018-11-07T04:32:31.055Z,96053.28
2018-11-07T04:35:01.072Z,96053.34
2018-11-07T04:37:31.047Z,96049.19
2018-11-07T04:40:01.000Z,96043.13
2018-11-07T04:42:31.010Z,96045.82
2018-11-07T04:45:01.104Z,96046.59
2018-11-07T04:47:31.488Z,96042.30
2018-11-07T04:50:01.348Z,96037.81
2018-11-07T04:52:31.404Z,96042.78
2018-11-07T04:55:00.566Z,96044.78
2018-11-07T04:57:29.702Z,96044.92
2018-11-07T04:59:58.873Z,96042.28
2018-11-07T05:02:27.995Z,96036.50
2018-11-07T05:04:57.135Z,96047.01
2018-11-07T05:07:26.339Z,96036.58
2018-11-07T05:09:55.487Z,96039.45
2018-11-07T05:12:24.622Z,96038.75
2018-11-07T05:14:55.400Z,96044.16
2018-11-07T05:17:24.544Z,96049.83
2018-11-07T05:19:53.718Z,96045.89
2018-11-07T05:22:22.860Z,96041.25
2018-11-07T05:24:52.058Z,96047.19
2018-11-07T05:27:21.191Z,96045.81
2018-11-07T05:29:50.355Z,96049.91
2018-11-07T05:32:19.500Z,96044.48
2018-11-07T05:34:48.639Z,96045.53
2018-11-07T05:37:17.775Z,96037.58
2018-11-07T05:39:46.932Z,96048.37
2018-11-07T05:42:16.063Z,96053.81
2018-11-07T05:44:45.211Z,96048.59
2018-11-07T05:47:14.346Z,96051.41
2018-11-07T05:49:43.974Z,96050.00
2018-11-07T05:52:13.819Z,96055.06
2018-11-07T05:54:43.873Z,96052.30
2018-11-07T05:57:13.835Z,96053.97
2018-11-07T05:59:43.945Z,96051.00
2018-11-07T06:02:15.038Z,96051.47
2018-11-07T06:04:45.235Z,96058.59
2018-11-07T06:07:14.346Z,96060.63
2018-11-07T06:09:44.167Z,96057.95
2018-11-07T06:12:13.979Z,96065.78
2018-11-07T06:14:44.153Z,96069.44
2018-11-07T06:17:13.951Z,96066.20
2018-11-07T06:19:44.150Z,96066.52
2018-11-07T06:22:15.174Z,96071.16
2018-11-07T06:24:45.143Z,96069.25
2018-11-07T06:27:14.190Z,96074.40
2018-11-07T06:29:46.039Z,96070.46
2018-11-07T06:32:15.175Z,96082.30
2018-11-07T06:34:44.331Z,96082.93
2018-11-07T06:37:13.999Z,96079.33
2018-11-07T06:39:44.147Z,96080.36
2018-11-07T06:42:13.942Z,96074.63
2018-11-07T06:44:45.154Z,96077.70
2018-11-07T06:47:14.302Z,96096.29
2018-11-07T06:49:43.447Z,96090.49
2018-11-07T06:52:12.583Z,96097.39
2018-11-07T06:54:41.731Z,96094.32
2018-11-07T06:57:10.942Z,96099.54
2018-11-07T06:59:40.082Z,96097.25
2018-11-07T07:02:09.217Z,96097.20
2018-11-07T07:04:38.342Z,96090.75
2018-11-07T07:07:07.490Z,96086.67
2018-11-07T07:09:36.626Z,96093.83
2018-11-07T07:12:06.095Z,96095.89
2018-11-07T07:14:36.026Z,96098.96
2018-11-07T07:17:05.419Z,96099.92
2018-11-07T07:19:34.556Z,96099.01
2018-11-07T07:22:03.707Z,96101.25
2018-11-07T07:24:32.847Z,96106.27
2018-11-07T07:27:02.002Z,96104.09
2018-11-07T07:29:31.791Z,96101.23
2018-11-07T07:32:00.935Z,96098.97
2018-11-07T07:34:30.269Z,96096.86
2018-11-07T07:36:59.422Z,96093.81
2018-11-07T07:39:28.623Z,96098.09
2018-11-07T07:41:57.911Z,96089.81
2018-11-07T07:44:27.111Z,96097.00
2018-11-07T07:46:57.646Z,96094.70
2018-11-07T07:49:26.973Z,96096.41
2018-11-07T07:51:56.044Z,96095.02
2018-11-07T07:54:25.187Z,96094.97
2018-11-07T07:56:54.358Z,96103.45
2018-11-07T07:59:23.521Z,96107.31
2018-11-07T08:01:52.740Z,96100.64
2018-11-07T08:04:21.918Z,96104.09
2018-11-07T08:06:51.070Z,96104.25
2018-11-07T08:09:20.348Z,96103.47
2018-11-07T08:11:49.532Z,96103.70
2018-11-07T08:14:18.716Z,96101.66
2018-11-07T08:16:47.874Z,96103.16
2018-11-07T08:19:17.019Z,96104.65
2018-11-07T08:21:46.214Z,96101.19
2018-11-07T08:24:15.387Z,96098.28
2018-11-07T08:26:45.371Z,96100.66
2018-11-07T08:29:14.508Z,96114.21
2018-11-07T08:31:43.664Z,96115.72
2018-11-07T08:34:12.819Z,96101.66
2018-11-07T08:36:41.987Z,96101.94
2018-11-07T08:39:12.765Z,96110.55
2018-11-07T08:41:41.944Z,96102.81
2018-11-07T08:44:11.099Z,96100.32
2018-11-07T08:46:40.248Z,96096.09
2018-11-07T08:49:09.447Z,96099.73
2018-11-07T08:51:38.608Z,96104.48
2018-11-07T08:54:07.835Z,96102.28
2018-11-07T08:56:36.988Z,96092.31
2018-11-07T08:59:06.405Z,96091.64
2018-11-07T09:04:05.239Z,96094.45
2018-11-07T09:06:34.415Z,96089.99
2018-11-07T09:09:03.636Z,96090.06
2018-11-07T09:11:32.795Z,96084.93
2018-11-07T09:14:01.933Z,96092.20
2018-11-07T09:16:31.245Z,96094.75
2018-11-07T09:19:00.540Z,96097.13
2018-11-07T09:21:29.771Z,96100.29
2018-11-07T09:23:59.090Z,96090.68
2018-11-07T09:26:28.250Z,96094.72
2018-11-07T09:28:57.441Z,96094.33
2018-11-07T09:31:26.636Z,96090.72
2018-11-07T09:33:55.809Z,96091.38
2018-11-07T09:36:24.990Z,96094.69
2018-11-07T09:38:54.155Z,96087.91
2018-11-07T09:41:23.303Z,96085.67
2018-11-07T09:43:52.578Z,96083.40
2018-11-07T09:46:21.784Z,96080.03
2018-11-07T09:48:51.019Z,96075.67
2018-11-07T09:51:20.175Z,96072.23
2018-11-07T09:53:49.454Z,96068.41
2018-11-07T09:56:18.503Z,96074.36
2018-11-07T09:58:47.671Z,96076.02
2018-11-07T10:01:16.895Z,96075.48
2018-11-07T10:03:49.460Z,96078.17
2018-11-07T10:06:18.605Z,96079.27
2018-11-07T10:08:47.787Z,96075.54
2018-11-07T10:11:16.925Z,96075.37
2018-11-07T10:13:46.167Z,96071.44
2018-11-07T10:16:15.512Z,96073.92
2018-11-07T10:18:44.654Z,96071.17
2018-11-07T10:21:13.784Z,96068.37
2018-11-07T10:23:42.923Z,96055.13
2018-11-07T10:26:12.050Z,96061.52
2018-11-07T10:28:41.401Z,96056.06
2018-11-07T10:31:10.384Z,96062.48
2018-11-07T10:33:39.527Z,96058.02
2018-11-07T10:36:08.691Z,96064.97
2018-11-07T10:38:37.978Z,96061.09
2018-11-07T10:41:06.983Z,96064.55
2018-11-07T10:43:36.151Z,96056.84
2018-11-07T10:46:05.723Z,96054.80
2018-11-07T10:48:34.779Z,96059.90
2018-11-07T10:51:03.916Z,96061.71
2018-11-07T10:53:33.136Z,96063.84
2018-11-07T10:56:02.292Z,96054.31
2018-11-07T10:58:31.480Z,96054.03
2018-11-07T11:01:05.854Z,96053.80
2018-11-07T11:03:35.035Z,96052.73
2018-11-07T11:06:04.175Z,96050.63
2018-11-07T11:08:33.331Z,96052.51
2018-11-07T11:11:02.494Z,96045.59
2018-11-07T11:13:31.757Z,96039.72
2018-11-07T11:16:00.893Z,96037.87
2018-11-07T11:18:30.053Z,96036.53
2018-11-07T11:20:59.227Z,96034.16
2018-11-07T11:23:28.423Z,96034.95
2018-11-07T11:25:57.742Z,96030.69
2018-11-07T11:28:26.730Z,96027.77
2018-11-07T11:30:56.056Z,96034.94
2018-11-07T11:33:25.315Z,96025.37
2018-11-07T11:35:54.520Z,96024.03
2018-11-07T11:38:23.694Z,96023.50
2018-11-07T11:43:54.801Z,96031.22
2018-11-07T11:46:23.926Z,96029.62
2018-11-07T11:48:53.077Z,96032.56
2018-11-07T11:51:22.207Z,96028.55
2018-11-07T11:53:51.359Z,96034.67
2018-11-07T11:56:20.492Z,96033.36
2018-11-07T11:58:49.716Z,96029.89
2018-11-07T12:01:18.995Z,96029.36
2018-11-07T12:03:49.491Z,96034.67
2018-11-07T12:06:18.664Z,96036.55
2018-11-07T12:08:48.401Z,96032.56
2018-11-07T12:11:18.357Z,96028.28
2018-11-07T12:18:51.870Z,96030.96
2018-11-07T12:21:21.046Z,96033.34
2018-11-07T12:23:50.153Z,96034.67
2018-11-07T12:26:19.294Z,96030.41
2018-11-07T12:28:48.471Z,96029.89
2018-11-07T12:31:17.615Z,96028.56
2018-11-07T12:33:46.764Z,96024.56
2018-11-07T12:36:15.964Z,96029.10
2018-11-07T12:38:45.051Z,96034.17
2018-11-07T12:41:14.182Z,96035.75
2018-11-07T12:43:43.383Z,96026.70
2018-11-07T12:46:12.533Z,96026.96
2018-11-07T12:48:41.806Z,96021.11
2018-11-07T12:51:11.520Z,96017.38
2018-11-07T12:53:40.815Z,96022.72
2018-11-07T12:56:11.566Z,96022.96
2018-11-07T12:58:40.738Z,96024.56
2018-11-07T13:01:10.718Z,96016.84
2018-11-07T13:03:39.970Z,96020.56
2018-11-07T13:06:10.344Z,96028.83
2018-11-07T13:08:39.492Z,96028.83
2018-11-07T13:11:08.657Z,96036.27
2018-11-07T13:13:37.794Z,96034.13
2018-11-07T13:16:06.951Z,96031.22
2018-11-07T13:18:36.082Z,96029.08
2018-11-07T13:21:05.573Z,96032.81
2018-11-07T13:23:34.783Z,96039.20
2018-11-07T13:26:04.298Z,96033.88
2018-11-07T13:28:34.390Z,96041.34
2018-11-07T13:31:04.322Z,96040.53
2018-11-07T13:33:33.836Z,96044.00
2018-11-07T13:36:03.023Z,96046.92
2018-11-07T13:38:32.484Z,96052.77
2018-11-07T13:41:01.508Z,96059.96
2018-11-07T13:43:30.615Z,96056.49
2018-11-07T13:45:59.840Z,96058.34
2018-11-07T13:48:28.976Z,96065.29
2018-11-07T13:50:58.215Z,96066.06
2018-11-07T13:58:32.366Z,96084.09
2018-11-07T14:01:01.516Z,96079.59
2018-11-07T14:03:30.743Z,96080.95
2018-11-07T14:05:59.894Z,96083.33
2018-11-07T14:08:28.956Z,96081.22
2018-11-07T14:10:59.475Z,96084.95
2018-11-07T14:13:29.726Z,96083.87
2018-11-07T14:15:59.068Z,96077.75
2018-11-07T14:18:28.199Z,96080.92
2018-11-07T14:20:57.364Z,96074.02
2018-11-07T14:23:26.513Z,96077.70
2018-11-07T14:25:55.666Z,96076.66
2018-11-07T14:28:25.012Z,96078.00
2018-11-07T14:30:53.949Z,96082.25
2018-11-07T14:33:23.125Z,96085.72
2018-11-07T14:35:53.206Z,96096.36
2018-11-07T14:38:23.256Z,96098.45
2018-11-07T14:40:53.271Z,96108.77
2018-11-07T14:43:23.176Z,96110.09
2018-11-07T14:45:53.083Z,96110.38
2018-11-07T14:48:23.142Z,96115.66
2018-11-07T14:50:53.203Z,96115.14
2018-11-07T14:53:23.203Z,96119.89
2018-11-07T14:55:53.251Z,96121.98
2018-11-07T15:03:20.386Z,96127.55
2018-11-07T15:05:49.831Z,96128.30
2018-11-07T15:08:18.977Z,96126.70
2018-11-07T15:10:48.140Z,96130.36
2018-11-07T15:13:17.332Z,96137.42
2018-11-07T15:15:46.681Z,96139.20
2018-11-07T15:18:15.858Z,96140.41
2018-11-07T15:20:45.011Z,96150.46
2018-11-07T15:23:14.162Z,96150.95
2018-11-07T15:25:43.307Z,96152.95
2018-11-07T15:28:12.516Z,96157.55
2018-11-07T15:30:41.671Z,96155.87
2018-11-07T15:33:10.811Z,96170.45
2018-11-07T15:35:40.120Z,96168.08
2018-11-07T15:38:09.303Z,96165.75
2018-11-07T15:40:38.443Z,96168.41
2018-11-07T15:43:07.590Z,96171.41
2018-11-07T15:45:36.783Z,96184.91
2018-11-07T15:48:06.175Z,96186.03
2018-11-07T15:50:40.643Z,96179.88
2018-11-07T16:08:36.822Z,96197.59
2018-11-07T16:11:06.207Z,96200.64
2018-11-07T16:13:35.397Z,96199.19
2018-11-07T16:16:04.555Z,96204.45
2018-11-07T16:18:33.696Z,96204.33
2018-11-07T16:21:02.948Z,96207.45
2018-11-07T16:23:32.120Z,96211.18
2018-11-07T16:26:01.545Z,96220.27
2018-11-07T16:28:30.672Z,96230.24
2018-11-07T16:30:59.780Z,96236.24
2018-11-07T16:33:29.051Z,96235.44
2018-11-07T16:35:58.199Z,96234.89
2018-11-07T16:38:27.412Z,96245.09
2018-11-07T16:40:56.613Z,96247.38
2018-11-07T16:43:25.722Z,96265.03
2018-11-07T16:45:55.010Z,96266.87
2018-11-07T16:48:24.123Z,96269.73
2018-11-07T16:50:53.418Z,96273.88
2018-11-07T16:53:23.368Z,96281.08
2018-11-07T16:55:53.423Z,96287.88
2018-11-07T16:58:23.538Z,96285.69
2018-11-07T17:00:53.466Z,96294.27
2018-11-07T17:03:23.330Z,96296.54
2018-11-07T17:05:53.382Z,96296.81
2018-11-07T17:08:23.434Z,96297.09
2018-11-07T17:10:53.410Z,96306.80
2018-11-07T17:13:23.485Z,96313.91
2018-11-07T17:15:53.518Z,96316.50
2018-11-07T17:18:23.350Z,96320.47
2018-11-07T17:20:53.606Z,96321.17
2018-11-07T17:23:23.473Z,96320.82
2018-11-07T17:25:53.567Z,96328.17
2018-11-07T17:28:23.394Z,96327.87
2018-11-07T17:30:53.439Z,96329.70
2018-11-07T17:33:27.470Z,96330.52
2018-11-07T17:35:56.646Z,96339.46
2018-11-07T17:38:25.842Z,96336.93
2018-11-07T17:40:55.002Z,96334.02
2018-11-07T17:43:24.190Z,96340.50
2018-11-07T17:45:54.462Z,96347.44
2018-11-07T17:48:23.621Z,96341.29
2018-11-07T17:50:54.679Z,96342.22
2018-11-07T17:53:23.810Z,96348.98
2018-11-07T17:55:53.606Z,96354.48
2018-11-07T17:58:23.570Z,96353.95
2018-11-07T18:00:53.591Z,96359.13
2018-11-07T18:03:23.499Z,96362.52
2018-11-07T18:05:53.256Z,96368.57
2018-11-07T18:08:23.471Z,96370.17
2018-11-07T18:10:53.994Z,96367.70
2018-11-07T18:13:23.684Z,96376.47
2018-11-07T18:15:53.574Z,96376.38
2018-11-07T18:18:23.590Z,96381.09
2018-11-07T18:20:57.404Z,96386.88
2018-11-07T18:23:26.601Z,96377.39
2018-11-07T18:25:56.282Z,96382.51
2018-11-07T18:28:25.421Z,96384.48
2018-11-07T18:30:54.684Z,96386.41
2018-11-07T18:33:23.832Z,96389.42
2018-11-07T18:35:53.117Z,96397.90
2018-11-07T18:38:22.211Z,96394.34
2018-11-07T18:40:51.390Z,96396.98
2018-11-07T18:43:20.529Z,96397.07
2018-11-07T18:45:49.690Z,96400.14
2018-11-07T18:48:18.903Z,96402.78
2018-11-07T18:50:48.193Z,96404.10
2018-11-07T18:53:17.232Z,96410.78
2018-11-07T18:55:46.374Z,96410.64
2018-11-07T18:58:15.579Z,96413.56
2018-11-07T19:00:44.783Z,96415.69
2018-11-07T19:03:13.951Z,96415.75
2018-11-07T19:05:43.091Z,96422.28
2018-11-07T19:08:12.279Z,96432.17
2018-11-07T19:10:41.431Z,96436.35
2018-11-07T19:13:10.647Z,96435.11
2018-11-07T19:15:39.860Z,96439.48
2018-11-07T19:18:09.044Z,96443.38
2018-11-07T19:20:38.316Z,96440.09
2018-11-07T19:23:07.426Z,96440.67
2018-11-07T19:25:36.665Z,96440.23
2018-11-07T19:28:05.875Z,96442.13
2018-11-07T19:30:35.058Z,96437.89
2018-11-07T19:33:04.333Z,96436.85
2018-11-07T19:35:33.391Z,96448.50
2018-11-07T19:38:02.600Z,96448.44
2018-11-07T19:40:31.745Z,96454.64
2018-11-07T19:43:00.999Z,96459.13
2018-11-07T19:45:30.192Z,96461.98
2018-11-07T19:47:59.482Z,96466.38
2018-11-07T19:50:28.614Z,96470.42
2018-11-07T19:52:57.795Z,96471.58
2018-11-07T19:55:26.930Z,96464.84
2018-11-07T19:58:00.054Z,96468.14
2018-11-07T20:00:29.287Z,96474.36
2018-11-07T20:02:58.472Z,96469.45
2018-11-07T20:05:27.609Z,96472.31
2018-11-07T20:07:56.791Z,96479.42
2018-11-07T20:10:26.574Z,96484.70
2018-11-07T20:12:55.718Z,96487.63
2018-11-07T20:15:24.862Z,96493.86
2018-11-07T20:17:54.042Z,96491.80
2018-11-07T20:20:23.200Z,96494.23
2018-11-07T20:22:52.446Z,96491.65
2018-11-07T20:25:21.519Z,96495.74
2018-11-07T20:27:50.767Z,96498.17
2018-11-07T20:30:20.823Z,96497.02
2018-11-07T20:32:50.009Z,96498.27
2018-11-07T20:35:20.065Z,96501.26
2018-11-07T20:37:49.234Z,96504.25
2018-11-07T20:40:19.659Z,96515.69
2018-11-07T20:42:49.111Z,96522.57
2018-11-07T20:45:18.591Z,96526.53
2018-11-07T20:47:47.781Z,96522.50
2018-11-07T20:50:18.786Z,96528.73
2018-11-07T20:52:48.170Z,96530.48
2018-11-07T20:55:17.707Z,96531.44
2018-11-07T20:57:46.847Z,96530.27
2018-11-07T21:00:19.959Z,96531.52
2018-11-07T21:02:49.506Z,96539.14
2018-11-07T21:05:18.674Z,96536.80
2018-11-07T21:07:48.023Z,96535.55
2018-11-07T21:10:18.434Z,96541.50
2018-11-07T21:12:48.450Z,96543.24
2018-11-07T21:15:18.556Z,96549.77
2018-11-07T21:17:47.995Z,96549.91
2018-11-07T21:20:17.218Z,96555.47
2018-11-07T21:22:46.350Z,96557.54
2018-11-07T21:25:15.690Z,96557.97
2018-11-07T21:27:44.829Z,96561.42
2018-11-07T21:30:15.074Z,96563.31
2018-11-07T21:32:44.793Z,96570.05
2018-11-07T21:35:13.989Z,96571.98
2018-11-07T21:37:43.134Z,96571.59
2018-11-07T21:40:15.691Z,96578.28
2018-11-07T21:42:45.594Z,96575.47
2018-11-07T21:45:15.327Z,96582.28
2018-11-07T21:47:44.802Z,96584.42
2018-11-07T21:50:16.034Z,96586.56
2018-11-07T21:52:45.254Z,96586.91
2018-11-07T21:55:14.439Z,96586.48
2018-11-07T21:57:43.605Z,96584.06
2018-11-07T22:00:16.424Z,96588.98
2018-11-07T22:02:45.887Z,96585.45
2018-11-07T22:05:15.842Z,96586.63
2018-11-07T22:07:45.013Z,96596.33
2018-11-07T22:10:15.472Z,96593.01
2018-11-07T22:12:44.690Z,96592.80
2018-11-07T22:15:13.878Z,96601.39
2018-11-07T22:17:43.014Z,96604.59
2018-11-07T22:20:15.562Z,96605.67
2018-11-07T22:22:45.197Z,96596.61
2018-11-07T22:25:14.959Z,96599.53
2018-11-07T22:27:44.227Z,96605.23
2018-11-07T22:30:14.907Z,96609.70
2018-11-07T22:32:44.063Z,96610.58
2018-11-07T22:35:14.840Z,96610.94
2018-11-07T22:37:44.730Z,96605.45
2018-11-07T22:40:15.171Z,96618.00
2018-11-07T22:42:44.395Z,96612.66
2018-11-07T22:45:14.083Z,96616.11
2018-11-07T22:47:43.234Z,96614.48
2018-11-07T22:50:13.608Z,96615.66
2018-11-07T22:52:43.717Z,96608.77
2018-11-07T22:55:12.876Z,96611.91
2018-11-07T22:57:42.024Z,96617.39
2018-11-07T23:00:20.541Z,96615.16
2018-11-07T23:02:53.624Z,96617.58
2018-11-07T23:05:22.771Z,96616.83
2018-11-07T23:07:52.427Z,96623.42
2018-11-07T23:10:21.589Z,96618.89
2018-11-07T23:12:51.060Z,96615.94
2018-11-07T23:15:25.490Z,96620.36
2018-11-07T23:17:54.644Z,96619.93
2018-11-07T23:20:23.804Z,96621.89
2018-11-07T23:22:52.976Z,96626.63
2018-11-07T23:25:22.171Z,96624.81
2018-11-07T23:27:51.335Z,96630.44
2018-11-07T23:30:20.505Z,96636.75
2018-11-07T23:32:49.647Z,96635.86
2018-11-07T23:35:18.795Z,96640.92
2018-11-07T23:37:47.934Z,96646.39
2018-11-07T23:40:17.091Z,96652.18
2018-11-07T23:42:46.243Z,96648.98
2018-11-07T23:45:15.392Z,96646.28
2018-11-07T23:47:44.577Z,96646.53
2018-11-07T23:50:13.726Z,96652.16
2018-11-07T23:52:48.941Z,96654.59
2018-11-07T23:55:19.435Z,96657.73
2018-11-07T23:57:49.179Z,96655.52
